sensor_id;sensor_type;location;lat;lon;timestamp;temperature;humidity
66598;DHT22;57424;53.128;6.406;2022-07-30T00:02:20;22.90;53.80
66598;DHT22;57424;53.128;6.406;2022-07-30T00:04:46;22.90;53.90
66598;DHT22;57424;53.128;6.406;2022-07-30T00:07:12;22.80;53.70
66598;DHT22;57424;53.128;6.406;2022-07-30T00:09:37;22.80;53.80
66598;DHT22;57424;53.128;6.406;2022-07-30T00:12:04;22.80;53.80
66598;DHT22;57424;53.128;6.406;2022-07-30T00:14:30;22.80;53.90
66598;DHT22;57424;53.128;6.406;2022-07-30T00:16:56;22.80;53.80
66598;DHT22;57424;53.128;6.406;2022-07-30T00:19:22;22.80;53.80
66598;DHT22;57424;53.128;6.406;2022-07-30T00:21:47;22.80;53.80
66598;DHT22;57424;53.128;6.406;2022-07-30T00:24:13;22.80;53.90
66598;DHT22;57424;53.128;6.406;2022-07-30T00:26:38;22.80;53.90
66598;DHT22;57424;53.128;6.406;2022-07-30T00:29:05;22.80;53.80
66598;DHT22;57424;53.128;6.406;2022-07-30T00:31:30;22.70;53.80
66598;DHT22;57424;53.128;6.406;2022-07-30T00:33:56;22.80;53.90
66598;DHT22;57424;53.128;6.406;2022-07-30T00:36:22;22.80;53.90
66598;DHT22;57424;53.128;6.406;2022-07-30T00:38:47;22.80;53.90
66598;DHT22;57424;53.128;6.406;2022-07-30T00:41:13;22.80;53.90
66598;DHT22;57424;53.128;6.406;2022-07-30T00:43:39;22.80;53.90
66598;DHT22;57424;53.128;6.406;2022-07-30T00:46:05;22.80;54.00
66598;DHT22;57424;53.128;6.406;2022-07-30T00:48:30;22.70;53.90
66598;DHT22;57424;53.128;6.406;2022-07-30T00:50:56;22.70;53.90
66598;DHT22;57424;53.128;6.406;2022-07-30T00:53:22;22.70;53.90
66598;DHT22;57424;53.128;6.406;2022-07-30T00:55:47;22.70;53.90
66598;DHT22;57424;53.128;6.406;2022-07-30T00:58:13;22.70;53.90
66598;DHT22;57424;53.128;6.406;2022-07-30T01:00:38;22.70;53.90
66598;DHT22;57424;53.128;6.406;2022-07-30T01:03:04;22.70;53.90
66598;DHT22;57424;53.128;6.406;2022-07-30T01:05:31;22.60;53.90
66598;DHT22;57424;53.128;6.406;2022-07-30T01:07:57;22.70;54.00
66598;DHT22;57424;53.128;6.406;2022-07-30T01:10:22;22.70;54.00
66598;DHT22;57424;53.128;6.406;2022-07-30T01:12:48;22.60;53.90
66598;DHT22;57424;53.128;6.406;2022-07-30T01:15:17;22.60;53.90
66598;DHT22;57424;53.128;6.406;2022-07-30T01:17:45;22.60;53.90
66598;DHT22;57424;53.128;6.406;2022-07-30T01:20:16;22.70;54.00
66598;DHT22;57424;53.128;6.406;2022-07-30T01:28:05;22.60;53.90
66598;DHT22;57424;53.128;6.406;2022-07-30T01:30:35;22.60;54.00
66598;DHT22;57424;53.128;6.406;2022-07-30T01:33:04;22.60;53.90
66598;DHT22;57424;53.128;6.406;2022-07-30T01:35:32;22.60;54.00
66598;DHT22;57424;53.128;6.406;2022-07-30T01:37:58;22.60;53.90
66598;DHT22;57424;53.128;6.406;2022-07-30T01:40:27;22.60;54.00
66598;DHT22;57424;53.128;6.406;2022-07-30T01:42:53;22.60;54.00
66598;DHT22;57424;53.128;6.406;2022-07-30T01:45:22;22.60;53.90
66598;DHT22;57424;53.128;6.406;2022-07-30T01:47:51;22.60;54.00
66598;DHT22;57424;53.128;6.406;2022-07-30T01:50:16;22.60;54.00
66598;DHT22;57424;53.128;6.406;2022-07-30T01:52:44;22.60;54.00
66598;DHT22;57424;53.128;6.406;2022-07-30T01:55:14;22.60;54.00
66598;DHT22;57424;53.128;6.406;2022-07-30T01:57:40;22.60;54.00
66598;DHT22;57424;53.128;6.406;2022-07-30T02:00:09;22.60;54.00
66598;DHT22;57424;53.128;6.406;2022-07-30T02:02:36;22.60;54.00
66598;DHT22;57424;53.128;6.406;2022-07-30T02:05:04;22.50;53.90
66598;DHT22;57424;53.128;6.406;2022-07-30T02:07:39;22.60;54.00
66598;DHT22;57424;53.128;6.406;2022-07-30T02:10:12;22.60;54.00
66598;DHT22;57424;53.128;6.406;2022-07-30T02:12:45;22.50;53.90
66598;DHT22;57424;53.128;6.406;2022-07-30T02:17:53;22.50;53.90
66598;DHT22;57424;53.128;6.406;2022-07-30T02:20:24;22.50;54.30
66598;DHT22;57424;53.128;6.406;2022-07-30T02:22:53;22.50;54.00
66598;DHT22;57424;53.128;6.406;2022-07-30T02:25:20;22.50;53.90
66598;DHT22;57424;53.128;6.406;2022-07-30T02:27:53;22.50;54.00
66598;DHT22;57424;53.128;6.406;2022-07-30T02:30:23;22.50;53.90
66598;DHT22;57424;53.128;6.406;2022-07-30T02:32:51;22.50;54.60
66598;DHT22;57424;53.128;6.406;2022-07-30T02:35:20;22.50;54.00
66598;DHT22;57424;53.128;6.406;2022-07-30T02:37:49;22.50;53.90
66598;DHT22;57424;53.128;6.406;2022-07-30T02:40:17;22.50;53.90
66598;DHT22;57424;53.128;6.406;2022-07-30T02:42:46;22.50;54.00
66598;DHT22;57424;53.128;6.406;2022-07-30T02:45:15;22.50;54.00
66598;DHT22;57424;53.128;6.406;2022-07-30T02:47:43;22.50;53.90
66598;DHT22;57424;53.128;6.406;2022-07-30T02:50:10;22.40;53.90
66598;DHT22;57424;53.128;6.406;2022-07-30T02:52:38;22.50;53.90
66598;DHT22;57424;53.128;6.406;2022-07-30T02:55:06;22.40;53.90
66598;DHT22;57424;53.128;6.406;2022-07-30T02:57:33;22.40;53.80
66598;DHT22;57424;53.128;6.406;2022-07-30T03:00:00;22.50;53.90
66598;DHT22;57424;53.128;6.406;2022-07-30T03:02:26;22.40;53.80
66598;DHT22;57424;53.128;6.406;2022-07-30T03:04:53;22.40;53.80
66598;DHT22;57424;53.128;6.406;2022-07-30T03:07:19;22.40;53.80
66598;DHT22;57424;53.128;6.406;2022-07-30T03:09:46;22.40;53.80
66598;DHT22;57424;53.128;6.406;2022-07-30T03:12:13;22.40;53.80
66598;DHT22;57424;53.128;6.406;2022-07-30T03:14:39;22.40;53.80
66598;DHT22;57424;53.128;6.406;2022-07-30T03:17:06;22.40;53.80
66598;DHT22;57424;53.128;6.406;2022-07-30T03:19:36;22.40;53.80
66598;DHT22;57424;53.128;6.406;2022-07-30T03:22:05;22.40;53.70
66598;DHT22;57424;53.128;6.406;2022-07-30T03:24:32;22.40;53.70
66598;DHT22;57424;53.128;6.406;2022-07-30T03:26:59;22.40;53.70
66598;DHT22;57424;53.128;6.406;2022-07-30T03:29:28;22.40;53.70
66598;DHT22;57424;53.128;6.406;2022-07-30T03:31:56;22.30;53.70
66598;DHT22;57424;53.128;6.406;2022-07-30T03:34:21;22.40;53.70
66598;DHT22;57424;53.128;6.406;2022-07-30T03:36:48;22.30;53.60
66598;DHT22;57424;53.128;6.406;2022-07-30T03:39:14;22.30;53.60
66598;DHT22;57424;53.128;6.406;2022-07-30T03:41:41;22.30;53.70
66598;DHT22;57424;53.128;6.406;2022-07-30T03:44:07;22.30;53.60
66598;DHT22;57424;53.128;6.406;2022-07-30T03:46:35;22.30;53.60
66598;DHT22;57424;53.128;6.406;2022-07-30T03:49:01;22.30;53.60
66598;DHT22;57424;53.128;6.406;2022-07-30T03:51:27;22.30;53.60
66598;DHT22;57424;53.128;6.406;2022-07-30T03:53:53;22.30;53.60
66598;DHT22;57424;53.128;6.406;2022-07-30T03:56:20;22.30;54.30
66598;DHT22;57424;53.128;6.406;2022-07-30T03:58:46;22.30;53.60
66598;DHT22;57424;53.128;6.406;2022-07-30T04:01:11;22.30;53.60
66598;DHT22;57424;53.128;6.406;2022-07-30T04:03:37;22.30;53.60
66598;DHT22;57424;53.128;6.406;2022-07-30T04:06:03;22.30;53.60
66598;DHT22;57424;53.128;6.406;2022-07-30T04:08:29;22.30;53.60
66598;DHT22;57424;53.128;6.406;2022-07-30T04:10:55;22.30;53.60
66598;DHT22;57424;53.128;6.406;2022-07-30T04:16:52;22.30;53.50
66598;DHT22;57424;53.128;6.406;2022-07-30T04:19:24;22.30;53.60
66598;DHT22;57424;53.128;6.406;2022-07-30T04:21:51;22.20;53.50
66598;DHT22;57424;53.128;6.406;2022-07-30T04:24:18;22.20;53.50
66598;DHT22;57424;53.128;6.406;2022-07-30T04:26:45;22.20;53.60
66598;DHT22;57424;53.128;6.406;2022-07-30T04:29:11;22.30;53.60
66598;DHT22;57424;53.128;6.406;2022-07-30T04:31:38;22.20;53.50
66598;DHT22;57424;53.128;6.406;2022-07-30T04:34:04;22.20;53.60
66598;DHT22;57424;53.128;6.406;2022-07-30T04:36:31;22.20;53.50
66598;DHT22;57424;53.128;6.406;2022-07-30T04:38:58;22.20;53.60
66598;DHT22;57424;53.128;6.406;2022-07-30T04:41:23;22.20;53.60
66598;DHT22;57424;53.128;6.406;2022-07-30T04:43:50;22.20;53.60
66598;DHT22;57424;53.128;6.406;2022-07-30T04:46:15;22.20;53.50
66598;DHT22;57424;53.128;6.406;2022-07-30T04:48:41;22.20;53.50
66598;DHT22;57424;53.128;6.406;2022-07-30T04:51:12;22.20;53.50
66598;DHT22;57424;53.128;6.406;2022-07-30T04:53:39;22.20;53.50
66598;DHT22;57424;53.128;6.406;2022-07-30T04:56:06;22.20;53.50
66598;DHT22;57424;53.128;6.406;2022-07-30T04:58:34;22.10;53.40
66598;DHT22;57424;53.128;6.406;2022-07-30T05:01:01;22.20;53.60
66598;DHT22;57424;53.128;6.406;2022-07-30T05:03:29;22.20;53.60
66598;DHT22;57424;53.128;6.406;2022-07-30T05:05:56;22.20;53.60
66598;DHT22;57424;53.128;6.406;2022-07-30T05:08:23;22.20;53.50
66598;DHT22;57424;53.128;6.406;2022-07-30T05:10:49;22.10;53.60
66598;DHT22;57424;53.128;6.406;2022-07-30T05:13:15;22.10;53.50
66598;DHT22;57424;53.128;6.406;2022-07-30T05:15:41;22.10;53.60
66598;DHT22;57424;53.128;6.406;2022-07-30T05:18:09;22.20;53.60
66598;DHT22;57424;53.128;6.406;2022-07-30T05:20:35;22.10;53.50
66598;DHT22;57424;53.128;6.406;2022-07-30T05:23:01;22.20;53.60
66598;DHT22;57424;53.128;6.406;2022-07-30T05:25:27;22.20;53.60
66598;DHT22;57424;53.128;6.406;2022-07-30T05:27:52;22.20;53.60
66598;DHT22;57424;53.128;6.406;2022-07-30T05:30:19;22.20;53.60
66598;DHT22;57424;53.128;6.406;2022-07-30T05:32:44;22.10;53.50
66598;DHT22;57424;53.128;6.406;2022-07-30T05:35:10;22.20;53.50
66598;DHT22;57424;53.128;6.406;2022-07-30T05:37:35;22.20;53.60
66598;DHT22;57424;53.128;6.406;2022-07-30T05:40:01;22.20;53.60
66598;DHT22;57424;53.128;6.406;2022-07-30T05:42:26;22.20;53.60
66598;DHT22;57424;53.128;6.406;2022-07-30T05:44:52;22.10;53.50
66598;DHT22;57424;53.128;6.406;2022-07-30T05:47:17;22.20;53.50
66598;DHT22;57424;53.128;6.406;2022-07-30T05:49:45;22.20;53.50
66598;DHT22;57424;53.128;6.406;2022-07-30T05:52:11;22.20;54.20
66598;DHT22;57424;53.128;6.406;2022-07-30T05:54:37;22.20;53.60
66598;DHT22;57424;53.128;6.406;2022-07-30T05:57:03;22.10;53.50
66598;DHT22;57424;53.128;6.406;2022-07-30T05:59:29;22.20;53.60
66598;DHT22;57424;53.128;6.406;2022-07-30T06:01:54;22.20;53.60
66598;DHT22;57424;53.128;6.406;2022-07-30T06:04:20;22.20;53.60
66598;DHT22;57424;53.128;6.406;2022-07-30T06:06:45;22.20;53.60
66598;DHT22;57424;53.128;6.406;2022-07-30T06:09:11;22.20;53.60
66598;DHT22;57424;53.128;6.406;2022-07-30T06:11:36;22.20;53.60
66598;DHT22;57424;53.128;6.406;2022-07-30T06:14:02;22.20;53.60
66598;DHT22;57424;53.128;6.406;2022-07-30T06:16:27;22.20;53.60
66598;DHT22;57424;53.128;6.406;2022-07-30T06:18:53;22.20;53.60
66598;DHT22;57424;53.128;6.406;2022-07-30T06:21:18;22.20;53.60
66598;DHT22;57424;53.128;6.406;2022-07-30T06:23:44;22.20;53.60
66598;DHT22;57424;53.128;6.406;2022-07-30T06:26:09;22.20;53.60
66598;DHT22;57424;53.128;6.406;2022-07-30T06:28:35;22.20;53.70
66598;DHT22;57424;53.128;6.406;2022-07-30T06:31:01;22.20;53.80
66598;DHT22;57424;53.128;6.406;2022-07-30T06:33:26;22.20;54.00
66598;DHT22;57424;53.128;6.406;2022-07-30T06:35:52;22.30;54.20
66598;DHT22;57424;53.128;6.406;2022-07-30T06:38:18;22.30;54.20
66598;DHT22;57424;53.128;6.406;2022-07-30T06:40:43;22.30;54.30
66598;DHT22;57424;53.128;6.406;2022-07-30T06:43:09;22.30;54.30
66598;DHT22;57424;53.128;6.406;2022-07-30T06:45:34;22.30;54.30
66598;DHT22;57424;53.128;6.406;2022-07-30T06:48:00;22.30;54.40
66598;DHT22;57424;53.128;6.406;2022-07-30T06:50:26;22.30;54.40
66598;DHT22;57424;53.128;6.406;2022-07-30T06:52:51;22.40;54.40
66598;DHT22;57424;53.128;6.406;2022-07-30T06:55:17;22.40;54.30
66598;DHT22;57424;53.128;6.406;2022-07-30T06:57:43;22.40;54.20
66598;DHT22;57424;53.128;6.406;2022-07-30T07:00:09;22.40;54.20
66598;DHT22;57424;53.128;6.406;2022-07-30T07:02:35;22.40;54.20
66598;DHT22;57424;53.128;6.406;2022-07-30T07:05:01;22.40;54.20
66598;DHT22;57424;53.128;6.406;2022-07-30T07:07:26;22.40;54.10
66598;DHT22;57424;53.128;6.406;2022-07-30T07:09:52;22.40;54.20
66598;DHT22;57424;53.128;6.406;2022-07-30T07:12:18;22.40;54.20
66598;DHT22;57424;53.128;6.406;2022-07-30T07:14:43;22.50;54.20
66598;DHT22;57424;53.128;6.406;2022-07-30T07:17:09;22.50;54.20
66598;DHT22;57424;53.128;6.406;2022-07-30T07:19:35;22.50;54.30
66598;DHT22;57424;53.128;6.406;2022-07-30T07:22:02;22.50;54.30
66598;DHT22;57424;53.128;6.406;2022-07-30T07:24:27;22.50;54.30
66598;DHT22;57424;53.128;6.406;2022-07-30T07:26:53;22.50;54.30
66598;DHT22;57424;53.128;6.406;2022-07-30T07:29:18;22.50;54.40
66598;DHT22;57424;53.128;6.406;2022-07-30T07:31:44;22.50;54.40
66598;DHT22;57424;53.128;6.406;2022-07-30T07:34:10;22.50;54.40
66598;DHT22;57424;53.128;6.406;2022-07-30T07:36:35;22.50;54.40
66598;DHT22;57424;53.128;6.406;2022-07-30T07:39:02;22.50;54.50
66598;DHT22;57424;53.128;6.406;2022-07-30T07:41:35;22.50;54.50
66598;DHT22;57424;53.128;6.406;2022-07-30T07:44:01;22.50;54.60
66598;DHT22;57424;53.128;6.406;2022-07-30T07:46:26;22.50;54.60
66598;DHT22;57424;53.128;6.406;2022-07-30T07:48:52;22.50;54.70
66598;DHT22;57424;53.128;6.406;2022-07-30T07:51:18;22.60;54.80
66598;DHT22;57424;53.128;6.406;2022-07-30T07:53:45;22.60;54.80
66598;DHT22;57424;53.128;6.406;2022-07-30T07:56:11;22.60;55.00
66598;DHT22;57424;53.128;6.406;2022-07-30T07:58:36;22.60;55.10
66598;DHT22;57424;53.128;6.406;2022-07-30T08:01:02;22.60;55.10
66598;DHT22;57424;53.128;6.406;2022-07-30T08:03:27;22.60;55.10
66598;DHT22;57424;53.128;6.406;2022-07-30T08:05:53;22.60;55.10
66598;DHT22;57424;53.128;6.406;2022-07-30T08:08:19;22.70;55.10
66598;DHT22;57424;53.128;6.406;2022-07-30T08:10:44;22.70;55.00
66598;DHT22;57424;53.128;6.406;2022-07-30T08:13:10;22.70;55.10
66598;DHT22;57424;53.128;6.406;2022-07-30T08:15:36;22.70;55.10
66598;DHT22;57424;53.128;6.406;2022-07-30T08:18:01;22.80;55.10
66598;DHT22;57424;53.128;6.406;2022-07-30T08:20:27;22.80;55.10
66598;DHT22;57424;53.128;6.406;2022-07-30T08:22:52;22.80;55.10
66598;DHT22;57424;53.128;6.406;2022-07-30T08:25:18;22.90;55.10
66598;DHT22;57424;53.128;6.406;2022-07-30T08:27:44;22.90;55.10
66598;DHT22;57424;53.128;6.406;2022-07-30T08:30:10;22.90;55.10
66598;DHT22;57424;53.128;6.406;2022-07-30T08:32:36;22.90;55.00
66598;DHT22;57424;53.128;6.406;2022-07-30T08:35:05;22.90;55.00
66598;DHT22;57424;53.128;6.406;2022-07-30T08:37:31;23.00;55.10
66598;DHT22;57424;53.128;6.406;2022-07-30T08:39:56;22.90;55.10
66598;DHT22;57424;53.128;6.406;2022-07-30T08:42:22;23.00;55.20
66598;DHT22;57424;53.128;6.406;2022-07-30T08:44:49;23.00;55.30
66598;DHT22;57424;53.128;6.406;2022-07-30T08:47:17;23.10;55.50
66598;DHT22;57424;53.128;6.406;2022-07-30T08:49:45;23.10;55.40
66598;DHT22;57424;53.128;6.406;2022-07-30T08:52:10;23.10;55.30
66598;DHT22;57424;53.128;6.406;2022-07-30T08:54:38;23.10;55.20
66598;DHT22;57424;53.128;6.406;2022-07-30T08:57:05;23.10;55.20
66598;DHT22;57424;53.128;6.406;2022-07-30T08:59:31;23.10;55.20
66598;DHT22;57424;53.128;6.406;2022-07-30T09:01:57;23.20;55.20
66598;DHT22;57424;53.128;6.406;2022-07-30T09:04:23;23.20;55.10
66598;DHT22;57424;53.128;6.406;2022-07-30T09:06:48;23.20;55.10
66598;DHT22;57424;53.128;6.406;2022-07-30T09:09:14;23.20;55.00
66598;DHT22;57424;53.128;6.406;2022-07-30T09:11:40;23.20;55.00
66598;DHT22;57424;53.128;6.406;2022-07-30T09:14:10;23.20;55.00
66598;DHT22;57424;53.128;6.406;2022-07-30T09:16:36;23.20;55.00
66598;DHT22;57424;53.128;6.406;2022-07-30T09:19:17;23.20;55.00
66598;DHT22;57424;53.128;6.406;2022-07-30T09:21:54;23.20;55.00
66598;DHT22;57424;53.128;6.406;2022-07-30T09:24:20;23.20;55.00
66598;DHT22;57424;53.128;6.406;2022-07-30T09:26:57;23.20;55.00
66598;DHT22;57424;53.128;6.406;2022-07-30T09:29:25;23.20;55.10
66598;DHT22;57424;53.128;6.406;2022-07-30T09:36:51;23.20;55.10
66598;DHT22;57424;53.128;6.406;2022-07-30T09:39:32;23.20;55.10
66598;DHT22;57424;53.128;6.406;2022-07-30T09:41:58;23.20;55.10
66598;DHT22;57424;53.128;6.406;2022-07-30T09:44:26;23.20;55.20
66598;DHT22;57424;53.128;6.406;2022-07-30T09:46:52;23.20;55.20
66598;DHT22;57424;53.128;6.406;2022-07-30T09:49:20;23.20;55.20
66598;DHT22;57424;53.128;6.406;2022-07-30T09:51:46;23.20;55.20
66598;DHT22;57424;53.128;6.406;2022-07-30T09:54:12;23.20;55.20
66598;DHT22;57424;53.128;6.406;2022-07-30T09:56:38;23.20;55.20
66598;DHT22;57424;53.128;6.406;2022-07-30T09:59:05;23.20;55.30
66598;DHT22;57424;53.128;6.406;2022-07-30T10:01:51;23.20;55.30
66598;DHT22;57424;53.128;6.406;2022-07-30T10:04:28;23.30;55.30
66598;DHT22;57424;53.128;6.406;2022-07-30T10:06:55;23.20;55.20
66598;DHT22;57424;53.128;6.406;2022-07-30T10:11:56;23.20;55.30
66598;DHT22;57424;53.128;6.406;2022-07-30T10:14:24;23.30;55.30
66598;DHT22;57424;53.128;6.406;2022-07-30T10:16:50;23.20;55.30
66598;DHT22;57424;53.128;6.406;2022-07-30T10:19:16;23.20;55.20
66598;DHT22;57424;53.128;6.406;2022-07-30T10:21:43;23.20;55.40
66598;DHT22;57424;53.128;6.406;2022-07-30T10:24:09;23.20;55.40
66598;DHT22;57424;53.128;6.406;2022-07-30T10:26:35;23.20;55.40
66598;DHT22;57424;53.128;6.406;2022-07-30T10:29:03;23.20;55.40
66598;DHT22;57424;53.128;6.406;2022-07-30T10:31:29;23.20;55.40
66598;DHT22;57424;53.128;6.406;2022-07-30T10:33:56;23.30;55.40
66598;DHT22;57424;53.128;6.406;2022-07-30T10:36:23;23.20;55.30
66598;DHT22;57424;53.128;6.406;2022-07-30T10:38:49;23.30;55.40
66598;DHT22;57424;53.128;6.406;2022-07-30T10:41:46;23.20;55.30
66598;DHT22;57424;53.128;6.406;2022-07-30T10:44:37;23.20;55.20
66598;DHT22;57424;53.128;6.406;2022-07-30T10:47:07;23.30;55.30
66598;DHT22;57424;53.128;6.406;2022-07-30T10:49:35;23.20;55.20
66598;DHT22;57424;53.128;6.406;2022-07-30T10:52:01;23.30;55.30
66598;DHT22;57424;53.128;6.406;2022-07-30T11:02:24;23.30;55.30
66598;DHT22;57424;53.128;6.406;2022-07-30T11:07:41;23.30;55.30
66598;DHT22;57424;53.128;6.406;2022-07-30T11:10:37;23.20;55.30
66598;DHT22;57424;53.128;6.406;2022-07-30T11:13:06;23.30;55.30
66598;DHT22;57424;53.128;6.406;2022-07-30T11:18:21;23.30;55.30
66598;DHT22;57424;53.128;6.406;2022-07-30T11:21:12;23.20;55.30
66598;DHT22;57424;53.128;6.406;2022-07-30T11:23:38;23.30;55.30
66598;DHT22;57424;53.128;6.406;2022-07-30T11:26:05;23.20;55.50
66598;DHT22;57424;53.128;6.406;2022-07-30T11:28:44;23.20;55.30
66598;DHT22;57424;53.128;6.406;2022-07-30T11:31:29;23.30;55.30
66598;DHT22;57424;53.128;6.406;2022-07-30T11:42:35;23.30;55.30
66598;DHT22;57424;53.128;6.406;2022-07-30T11:47:53;23.20;55.20
66598;DHT22;57424;53.128;6.406;2022-07-30T11:50:30;23.30;55.20
66598;DHT22;57424;53.128;6.406;2022-07-30T11:53:00;23.30;55.20
66598;DHT22;57424;53.128;6.406;2022-07-30T11:55:37;23.30;55.20
66598;DHT22;57424;53.128;6.406;2022-07-30T11:58:06;23.30;55.20
66598;DHT22;57424;53.128;6.406;2022-07-30T12:00:35;23.20;55.10
66598;DHT22;57424;53.128;6.406;2022-07-30T12:03:07;23.20;55.20
66598;DHT22;57424;53.128;6.406;2022-07-30T12:05:33;23.30;55.20
66598;DHT22;57424;53.128;6.406;2022-07-30T12:07:58;23.20;55.10
66598;DHT22;57424;53.128;6.406;2022-07-30T12:10:24;23.20;55.10
66598;DHT22;57424;53.128;6.406;2022-07-30T12:12:50;23.30;55.10
66598;DHT22;57424;53.128;6.406;2022-07-30T12:15:30;23.30;55.10
66598;DHT22;57424;53.128;6.406;2022-07-30T12:17:56;23.30;55.10
66598;DHT22;57424;53.128;6.406;2022-07-30T12:20:23;23.30;55.10
66598;DHT22;57424;53.128;6.406;2022-07-30T12:22:48;23.30;55.00
66598;DHT22;57424;53.128;6.406;2022-07-30T12:25:14;23.30;55.00
66598;DHT22;57424;53.128;6.406;2022-07-30T12:27:44;23.30;55.00
66598;DHT22;57424;53.128;6.406;2022-07-30T12:30:11;23.30;55.00
66598;DHT22;57424;53.128;6.406;2022-07-30T12:32:36;23.30;55.00
66598;DHT22;57424;53.128;6.406;2022-07-30T12:35:03;23.30;55.00
66598;DHT22;57424;53.128;6.406;2022-07-30T12:37:28;23.30;55.00
66598;DHT22;57424;53.128;6.406;2022-07-30T12:40:12;23.30;55.00
66598;DHT22;57424;53.128;6.406;2022-07-30T12:42:52;23.30;55.00
66598;DHT22;57424;53.128;6.406;2022-07-30T12:45:31;23.30;55.00
66598;DHT22;57424;53.128;6.406;2022-07-30T12:47:58;23.30;55.00
66598;DHT22;57424;53.128;6.406;2022-07-30T12:50:25;23.30;55.00
66598;DHT22;57424;53.128;6.406;2022-07-30T12:52:53;23.30;54.90
66598;DHT22;57424;53.128;6.406;2022-07-30T12:55:31;23.30;54.90
66598;DHT22;57424;53.128;6.406;2022-07-30T12:58:05;23.30;54.90
66598;DHT22;57424;53.128;6.406;2022-07-30T13:05:49;23.30;54.90
66598;DHT22;57424;53.128;6.406;2022-07-30T13:08:15;23.30;54.90
66598;DHT22;57424;53.128;6.406;2022-07-30T13:10:57;23.30;54.90
66598;DHT22;57424;53.128;6.406;2022-07-30T13:13:25;23.30;55.50
66598;DHT22;57424;53.128;6.406;2022-07-30T13:15:58;23.30;54.80
66598;DHT22;57424;53.128;6.406;2022-07-30T13:18:24;23.40;54.90
66598;DHT22;57424;53.128;6.406;2022-07-30T13:20:50;23.30;54.80
66598;DHT22;57424;53.128;6.406;2022-07-30T13:23:16;23.30;54.80
66598;DHT22;57424;53.128;6.406;2022-07-30T13:25:41;23.30;54.80
66598;DHT22;57424;53.128;6.406;2022-07-30T13:28:07;23.30;54.80
66598;DHT22;57424;53.128;6.406;2022-07-30T13:30:32;23.40;54.90
66598;DHT22;57424;53.128;6.406;2022-07-30T13:32:58;23.30;54.80
66598;DHT22;57424;53.128;6.406;2022-07-30T13:35:23;23.30;54.80
66598;DHT22;57424;53.128;6.406;2022-07-30T13:37:49;23.40;54.80
66598;DHT22;57424;53.128;6.406;2022-07-30T13:40:14;23.40;54.80
66598;DHT22;57424;53.128;6.406;2022-07-30T13:42:40;23.40;54.80
66598;DHT22;57424;53.128;6.406;2022-07-30T13:45:07;23.30;54.70
66598;DHT22;57424;53.128;6.406;2022-07-30T13:47:32;23.40;54.80
66598;DHT22;57424;53.128;6.406;2022-07-30T13:49:58;23.40;54.80
66598;DHT22;57424;53.128;6.406;2022-07-30T13:52:23;23.30;54.70
66598;DHT22;57424;53.128;6.406;2022-07-30T13:54:49;23.40;54.70
66598;DHT22;57424;53.128;6.406;2022-07-30T13:57:16;23.40;54.70
66598;DHT22;57424;53.128;6.406;2022-07-30T13:59:43;23.40;54.80
66598;DHT22;57424;53.128;6.406;2022-07-30T14:02:08;23.40;54.70
66598;DHT22;57424;53.128;6.406;2022-07-30T14:04:34;23.40;54.70
66598;DHT22;57424;53.128;6.406;2022-07-30T14:07:00;23.40;54.70
66598;DHT22;57424;53.128;6.406;2022-07-30T14:09:25;23.40;54.70
66598;DHT22;57424;53.128;6.406;2022-07-30T14:11:52;23.40;54.70
66598;DHT22;57424;53.128;6.406;2022-07-30T14:14:18;23.40;54.70
66598;DHT22;57424;53.128;6.406;2022-07-30T14:16:43;23.40;54.70
66598;DHT22;57424;53.128;6.406;2022-07-30T14:19:12;23.40;54.70
66598;DHT22;57424;53.128;6.406;2022-07-30T14:21:37;23.40;54.70
66598;DHT22;57424;53.128;6.406;2022-07-30T14:24:05;23.40;54.70
66598;DHT22;57424;53.128;6.406;2022-07-30T14:26:31;23.40;54.60
66598;DHT22;57424;53.128;6.406;2022-07-30T14:28:56;23.40;54.70
66598;DHT22;57424;53.128;6.406;2022-07-30T14:31:22;23.40;54.60
66598;DHT22;57424;53.128;6.406;2022-07-30T14:33:47;23.40;54.60
66598;DHT22;57424;53.128;6.406;2022-07-30T14:36:13;23.40;54.60
66598;DHT22;57424;53.128;6.406;2022-07-30T14:38:39;23.40;54.60
66598;DHT22;57424;53.128;6.406;2022-07-30T14:41:06;23.40;54.70
66598;DHT22;57424;53.128;6.406;2022-07-30T14:43:34;23.40;54.60
66598;DHT22;57424;53.128;6.406;2022-07-30T14:46:00;23.40;54.70
66598;DHT22;57424;53.128;6.406;2022-07-30T14:48:25;23.40;54.70
66598;DHT22;57424;53.128;6.406;2022-07-30T14:50:51;23.40;54.60
66598;DHT22;57424;53.128;6.406;2022-07-30T14:53:16;23.40;54.80
66598;DHT22;57424;53.128;6.406;2022-07-30T14:55:42;23.40;54.70
66598;DHT22;57424;53.128;6.406;2022-07-30T14:58:08;23.40;54.70
66598;DHT22;57424;53.128;6.406;2022-07-30T15:00:34;23.40;54.70
66598;DHT22;57424;53.128;6.406;2022-07-30T15:03:00;23.40;54.70
66598;DHT22;57424;53.128;6.406;2022-07-30T15:05:25;23.40;54.70
66598;DHT22;57424;53.128;6.406;2022-07-30T15:07:51;23.50;54.70
66598;DHT22;57424;53.128;6.406;2022-07-30T15:10:16;23.40;54.60
66598;DHT22;57424;53.128;6.406;2022-07-30T15:12:42;23.40;54.60
66598;DHT22;57424;53.128;6.406;2022-07-30T15:15:08;23.50;54.70
66598;DHT22;57424;53.128;6.406;2022-07-30T15:17:34;23.50;54.60
66598;DHT22;57424;53.128;6.406;2022-07-30T15:20:01;23.50;54.70
66598;DHT22;57424;53.128;6.406;2022-07-30T15:22:28;23.50;54.60
66598;DHT22;57424;53.128;6.406;2022-07-30T15:24:54;23.50;54.70
66598;DHT22;57424;53.128;6.406;2022-07-30T15:27:19;23.50;54.60
66598;DHT22;57424;53.128;6.406;2022-07-30T15:29:45;23.50;54.60
66598;DHT22;57424;53.128;6.406;2022-07-30T15:32:10;23.50;54.60
66598;DHT22;57424;53.128;6.406;2022-07-30T15:34:36;23.50;54.60
66598;DHT22;57424;53.128;6.406;2022-07-30T15:37:02;23.50;54.70
66598;DHT22;57424;53.128;6.406;2022-07-30T15:39:29;23.50;54.60
66598;DHT22;57424;53.128;6.406;2022-07-30T15:41:56;23.50;54.60
66598;DHT22;57424;53.128;6.406;2022-07-30T15:44:21;23.50;54.50
66598;DHT22;57424;53.128;6.406;2022-07-30T15:46:49;23.40;54.60
66598;DHT22;57424;53.128;6.406;2022-07-30T15:49:15;23.40;54.50
66598;DHT22;57424;53.128;6.406;2022-07-30T15:51:40;23.40;54.50
66598;DHT22;57424;53.128;6.406;2022-07-30T15:54:13;23.50;54.60
66598;DHT22;57424;53.128;6.406;2022-07-30T15:56:39;23.50;54.50
66598;DHT22;57424;53.128;6.406;2022-07-30T15:59:05;23.50;54.50
66598;DHT22;57424;53.128;6.406;2022-07-30T16:01:32;23.50;54.70
66598;DHT22;57424;53.128;6.406;2022-07-30T16:03:58;23.50;54.70
66598;DHT22;57424;53.128;6.406;2022-07-30T16:06:23;23.50;54.80
66598;DHT22;57424;53.128;6.406;2022-07-30T16:08:49;23.50;54.90
66598;DHT22;57424;53.128;6.406;2022-07-30T16:11:15;23.50;55.00
66598;DHT22;57424;53.128;6.406;2022-07-30T16:13:41;23.50;55.00
66598;DHT22;57424;53.128;6.406;2022-07-30T16:16:06;23.50;54.90
66598;DHT22;57424;53.128;6.406;2022-07-30T16:18:32;23.60;54.80
66598;DHT22;57424;53.128;6.406;2022-07-30T16:20:58;23.50;54.60